sensor_id;sensor_type;location;lat;lon;timestamp;temperature;humidity
6146;DHT22;3104;50.348;7.620;2023-09-07T00:01:19;18.40;1.00
6146;DHT22;3104;50.348;7.620;2023-09-07T00:03:45;18.30;1.00
6146;DHT22;3104;50.348;7.620;2023-09-07T00:06:11;18.40;1.00
6146;DHT22;3104;50.348;7.620;2023-09-07T00:08:36;18.50;1.00
6146;DHT22;3104;50.348;7.620;2023-09-07T00:11:03;18.30;1.00
6146;DHT22;3104;50.348;7.620;2023-09-07T00:13:29;18.20;1.00
6146;DHT22;3104;50.348;7.620;2023-09-07T00:16:01;18.20;1.00
6146;DHT22;3104;50.348;7.620;2023-09-07T00:18:27;18.20;1.00
6146;DHT22;3104;50.348;7.620;2023-09-07T00:20:53;18.20;1.00
6146;DHT22;3104;50.348;7.620;2023-09-07T00:23:18;17.90;1.00
6146;DHT22;3104;50.348;7.620;2023-09-07T00:25:45;17.90;1.00
6146;DHT22;3104;50.348;7.620;2023-09-07T00:28:11;17.90;1.00
6146;DHT22;3104;50.348;7.620;2023-09-07T00:30:37;17.90;1.00
6146;DHT22;3104;50.348;7.620;2023-09-07T00:33:02;17.90;1.00
6146;DHT22;3104;50.348;7.620;2023-09-07T00:35:28;17.90;1.00
6146;DHT22;3104;50.348;7.620;2023-09-07T00:37:54;17.90;1.00
6146;DHT22;3104;50.348;7.620;2023-09-07T00:40:20;17.80;1.00
6146;DHT22;3104;50.348;7.620;2023-09-07T00:42:45;17.70;1.00
6146;DHT22;3104;50.348;7.620;2023-09-07T00:45:11;17.60;17.00
6146;DHT22;3104;50.348;7.620;2023-09-07T00:47:38;17.60;97.60
6146;DHT22;3104;50.348;7.620;2023-09-07T00:50:04;17.60;58.50
6146;DHT22;3104;50.348;7.620;2023-09-07T00:52:31;17.60;24.90
6146;DHT22;3104;50.348;7.620;2023-09-07T00:54:58;17.60;19.10
6146;DHT22;3104;50.348;7.620;2023-09-07T00:57:24;17.60;1.00
6146;DHT22;3104;50.348;7.620;2023-09-07T00:59:50;17.60;1.00
6146;DHT22;3104;50.348;7.620;2023-09-07T01:02:16;17.60;1.00
6146;DHT22;3104;50.348;7.620;2023-09-07T01:04:41;17.60;1.00
6146;DHT22;3104;50.348;7.620;2023-09-07T01:07:35;17.60;22.40
6146;DHT22;3104;50.348;7.620;2023-09-07T01:10:02;17.50;1.00
6146;DHT22;3104;50.348;7.620;2023-09-07T01:12:28;17.50;1.00
6146;DHT22;3104;50.348;7.620;2023-09-07T01:14:54;17.60;1.00
6146;DHT22;3104;50.348;7.620;2023-09-07T01:17:20;17.50;25.60
6146;DHT22;3104;50.348;7.620;2023-09-07T01:19:48;17.40;65.90
6146;DHT22;3104;50.348;7.620;2023-09-07T01:22:17;17.40;57.00
6146;DHT22;3104;50.348;7.620;2023-09-07T01:24:43;17.30;99.90
6146;DHT22;3104;50.348;7.620;2023-09-07T01:27:11;17.20;99.90
6146;DHT22;3104;50.348;7.620;2023-09-07T01:29:38;17.20;99.90
6146;DHT22;3104;50.348;7.620;2023-09-07T01:32:04;17.20;99.90
6146;DHT22;3104;50.348;7.620;2023-09-07T01:34:30;17.30;99.90
6146;DHT22;3104;50.348;7.620;2023-09-07T01:36:56;17.30;99.90
6146;DHT22;3104;50.348;7.620;2023-09-07T01:39:22;17.20;99.90
6146;DHT22;3104;50.348;7.620;2023-09-07T01:41:47;17.10;99.90
6146;DHT22;3104;50.348;7.620;2023-09-07T01:44:13;17.10;99.90
6146;DHT22;3104;50.348;7.620;2023-09-07T01:46:38;17.10;99.90
6146;DHT22;3104;50.348;7.620;2023-09-07T01:49:04;17.30;99.90
6146;DHT22;3104;50.348;7.620;2023-09-07T01:51:30;17.20;99.90
6146;DHT22;3104;50.348;7.620;2023-09-07T01:53:55;17.10;99.90
6146;DHT22;3104;50.348;7.620;2023-09-07T01:56:21;17.10;99.90
6146;DHT22;3104;50.348;7.620;2023-09-07T01:58:46;17.10;99.90
6146;DHT22;3104;50.348;7.620;2023-09-07T02:01:26;17.00;99.90
6146;DHT22;3104;50.348;7.620;2023-09-07T02:03:52;17.00;99.90
6146;DHT22;3104;50.348;7.620;2023-09-07T02:06:18;16.90;99.90
6146;DHT22;3104;50.348;7.620;2023-09-07T02:08:44;16.90;99.90
6146;DHT22;3104;50.348;7.620;2023-09-07T02:11:10;16.80;99.90
6146;DHT22;3104;50.348;7.620;2023-09-07T02:13:35;16.70;99.90
6146;DHT22;3104;50.348;7.620;2023-09-07T02:16:04;16.70;99.90
6146;DHT22;3104;50.348;7.620;2023-09-07T02:18:32;16.70;99.90
6146;DHT22;3104;50.348;7.620;2023-09-07T02:21:04;16.50;99.90
6146;DHT22;3104;50.348;7.620;2023-09-07T02:23:31;16.60;99.90
6146;DHT22;3104;50.348;7.620;2023-09-07T02:25:57;16.90;99.90
6146;DHT22;3104;50.348;7.620;2023-09-07T02:28:24;17.00;99.90
6146;DHT22;3104;50.348;7.620;2023-09-07T02:30:50;16.80;99.90
6146;DHT22;3104;50.348;7.620;2023-09-07T02:33:15;16.80;99.90
6146;DHT22;3104;50.348;7.620;2023-09-07T02:35:41;16.70;99.90
6146;DHT22;3104;50.348;7.620;2023-09-07T02:38:06;16.60;99.90
6146;DHT22;3104;50.348;7.620;2023-09-07T02:40:32;16.50;99.90
6146;DHT22;3104;50.348;7.620;2023-09-07T02:42:57;16.60;99.90
6146;DHT22;3104;50.348;7.620;2023-09-07T02:45:23;16.60;99.90
6146;DHT22;3104;50.348;7.620;2023-09-07T02:47:48;16.40;99.90
6146;DHT22;3104;50.348;7.620;2023-09-07T02:50:16;16.50;99.90
6146;DHT22;3104;50.348;7.620;2023-09-07T02:52:43;16.40;99.90
6146;DHT22;3104;50.348;7.620;2023-09-07T02:55:08;16.40;99.90
6146;DHT22;3104;50.348;7.620;2023-09-07T02:57:35;16.40;99.90
6146;DHT22;3104;50.348;7.620;2023-09-07T03:00:00;16.50;99.90
6146;DHT22;3104;50.348;7.620;2023-09-07T03:02:34;16.40;99.90
6146;DHT22;3104;50.348;7.620;2023-09-07T03:05:00;16.40;99.90
6146;DHT22;3104;50.348;7.620;2023-09-07T03:07:25;16.50;99.90
6146;DHT22;3104;50.348;7.620;2023-09-07T03:09:52;16.50;99.90
6146;DHT22;3104;50.348;7.620;2023-09-07T03:12:18;16.50;99.90
6146;DHT22;3104;50.348;7.620;2023-09-07T03:14:43;16.60;99.90
6146;DHT22;3104;50.348;7.620;2023-09-07T03:17:10;16.50;99.90
6146;DHT22;3104;50.348;7.620;2023-09-07T03:19:36;16.30;99.90
6146;DHT22;3104;50.348;7.620;2023-09-07T03:22:03;16.10;99.90
6146;DHT22;3104;50.348;7.620;2023-09-07T03:24:28;16.10;99.90
6146;DHT22;3104;50.348;7.620;2023-09-07T03:26:54;16.10;99.90
6146;DHT22;3104;50.348;7.620;2023-09-07T03:29:20;16.00;99.90
6146;DHT22;3104;50.348;7.620;2023-09-07T03:31:45;16.00;99.90
6146;DHT22;3104;50.348;7.620;2023-09-07T03:34:11;16.10;99.90
6146;DHT22;3104;50.348;7.620;2023-09-07T03:36:36;16.10;99.90
6146;DHT22;3104;50.348;7.620;2023-09-07T03:39:02;16.10;99.90
6146;DHT22;3104;50.348;7.620;2023-09-07T03:41:28;16.10;99.90
6146;DHT22;3104;50.348;7.620;2023-09-07T03:43:56;16.10;99.90
6146;DHT22;3104;50.348;7.620;2023-09-07T03:46:23;16.10;99.90
6146;DHT22;3104;50.348;7.620;2023-09-07T03:48:49;16.10;99.90
6146;DHT22;3104;50.348;7.620;2023-09-07T03:51:14;16.10;99.90
6146;DHT22;3104;50.348;7.620;2023-09-07T03:53:40;16.10;99.90
6146;DHT22;3104;50.348;7.620;2023-09-07T03:56:05;16.00;99.90
6146;DHT22;3104;50.348;7.620;2023-09-07T03:58:31;16.00;99.90
6146;DHT22;3104;50.348;7.620;2023-09-07T04:00:59;15.90;99.90
6146;DHT22;3104;50.348;7.620;2023-09-07T04:03:25;15.90;99.90
6146;DHT22;3104;50.348;7.620;2023-09-07T04:05:51;15.80;99.90
6146;DHT22;3104;50.348;7.620;2023-09-07T04:08:16;15.90;99.90
6146;DHT22;3104;50.348;7.620;2023-09-07T04:10:42;15.90;99.90
6146;DHT22;3104;50.348;7.620;2023-09-07T04:13:07;15.70;99.90
6146;DHT22;3104;50.348;7.620;2023-09-07T04:15:43;15.70;99.90
6146;DHT22;3104;50.348;7.620;2023-09-07T04:18:12;15.70;99.90
6146;DHT22;3104;50.348;7.620;2023-09-07T04:20:40;15.70;99.90
6146;DHT22;3104;50.348;7.620;2023-09-07T04:23:06;15.70;99.90
6146;DHT22;3104;50.348;7.620;2023-09-07T04:25:32;15.70;99.90
6146;DHT22;3104;50.348;7.620;2023-09-07T04:28:00;15.80;99.90
6146;DHT22;3104;50.348;7.620;2023-09-07T04:30:26;15.70;99.90
6146;DHT22;3104;50.348;7.620;2023-09-07T04:32:52;15.70;99.90
6146;DHT22;3104;50.348;7.620;2023-09-07T04:35:18;15.70;99.90
6146;DHT22;3104;50.348;7.620;2023-09-07T04:37:43;15.60;99.90
6146;DHT22;3104;50.348;7.620;2023-09-07T04:40:09;15.50;99.90
6146;DHT22;3104;50.348;7.620;2023-09-07T04:42:35;15.50;99.90
6146;DHT22;3104;50.348;7.620;2023-09-07T04:45:01;15.50;99.90
6146;DHT22;3104;50.348;7.620;2023-09-07T04:47:27;15.50;99.90
6146;DHT22;3104;50.348;7.620;2023-09-07T04:49:52;15.50;99.90
6146;DHT22;3104;50.348;7.620;2023-09-07T04:52:18;15.50;99.90
6146;DHT22;3104;50.348;7.620;2023-09-07T04:54:44;15.50;99.90
6146;DHT22;3104;50.348;7.620;2023-09-07T04:57:10;15.50;99.90
6146;DHT22;3104;50.348;7.620;2023-09-07T04:59:36;15.50;99.90
6146;DHT22;3104;50.348;7.620;2023-09-07T05:02:01;15.40;99.90
6146;DHT22;3104;50.348;7.620;2023-09-07T05:04:27;15.40;99.90
6146;DHT22;3104;50.348;7.620;2023-09-07T05:06:53;15.60;99.90
6146;DHT22;3104;50.348;7.620;2023-09-07T05:09:19;15.60;99.90
6146;DHT22;3104;50.348;7.620;2023-09-07T05:11:45;15.40;99.90
6146;DHT22;3104;50.348;7.620;2023-09-07T05:14:11;15.40;99.90
6146;DHT22;3104;50.348;7.620;2023-09-07T05:16:36;15.40;99.90
6146;DHT22;3104;50.348;7.620;2023-09-07T05:19:02;15.40;99.90
6146;DHT22;3104;50.348;7.620;2023-09-07T05:21:28;15.50;99.90
6146;DHT22;3104;50.348;7.620;2023-09-07T05:23:54;15.50;99.90
6146;DHT22;3104;50.348;7.620;2023-09-07T05:26:23;15.50;99.90
6146;DHT22;3104;50.348;7.620;2023-09-07T05:28:49;15.60;99.90
6146;DHT22;3104;50.348;7.620;2023-09-07T05:31:15;15.60;99.90
6146;DHT22;3104;50.348;7.620;2023-09-07T05:33:40;15.60;99.90
6146;DHT22;3104;50.348;7.620;2023-09-07T05:36:06;15.60;99.90
6146;DHT22;3104;50.348;7.620;2023-09-07T05:38:32;15.60;99.90
6146;DHT22;3104;50.348;7.620;2023-09-07T05:40:57;15.70;99.90
6146;DHT22;3104;50.348;7.620;2023-09-07T05:43:23;15.70;99.90
6146;DHT22;3104;50.348;7.620;2023-09-07T05:45:49;15.80;99.90
6146;DHT22;3104;50.348;7.620;2023-09-07T05:48:14;15.80;99.90
6146;DHT22;3104;50.348;7.620;2023-09-07T05:50:43;15.80;99.90
6146;DHT22;3104;50.348;7.620;2023-09-07T05:53:09;15.90;99.90
6146;DHT22;3104;50.348;7.620;2023-09-07T05:55:35;16.00;99.90
6146;DHT22;3104;50.348;7.620;2023-09-07T05:58:05;16.10;99.90
6146;DHT22;3104;50.348;7.620;2023-09-07T06:00:31;16.10;99.90
6146;DHT22;3104;50.348;7.620;2023-09-07T06:02:56;16.10;99.90
6146;DHT22;3104;50.348;7.620;2023-09-07T06:05:22;16.10;99.90
6146;DHT22;3104;50.348;7.620;2023-09-07T06:07:48;16.20;99.90
6146;DHT22;3104;50.348;7.620;2023-09-07T06:10:14;16.40;99.90
6146;DHT22;3104;50.348;7.620;2023-09-07T06:12:39;16.40;99.90
6146;DHT22;3104;50.348;7.620;2023-09-07T06:15:05;16.50;99.90
6146;DHT22;3104;50.348;7.620;2023-09-07T06:17:31;16.60;99.90
6146;DHT22;3104;50.348;7.620;2023-09-07T06:19:57;16.60;99.90
6146;DHT22;3104;50.348;7.620;2023-09-07T06:22:22;16.60;99.90
6146;DHT22;3104;50.348;7.620;2023-09-07T06:24:49;16.90;99.90
6146;DHT22;3104;50.348;7.620;2023-09-07T06:27:14;17.00;25.50
6146;DHT22;3104;50.348;7.620;2023-09-07T06:29:40;17.10;1.00
6146;DHT22;3104;50.348;7.620;2023-09-07T06:32:05;17.20;1.00
6146;DHT22;3104;50.348;7.620;2023-09-07T06:34:31;17.20;1.00
6146;DHT22;3104;50.348;7.620;2023-09-07T06:36:56;17.20;1.00
6146;DHT22;3104;50.348;7.620;2023-09-07T06:39:22;17.20;1.00
6146;DHT22;3104;50.348;7.620;2023-09-07T06:41:48;17.30;1.00
6146;DHT22;3104;50.348;7.620;2023-09-07T06:44:13;17.40;1.00
6146;DHT22;3104;50.348;7.620;2023-09-07T06:46:40;17.50;1.00
6146;DHT22;3104;50.348;7.620;2023-09-07T06:49:05;17.60;1.00
6146;DHT22;3104;50.348;7.620;2023-09-07T06:51:31;17.70;1.00
6146;DHT22;3104;50.348;7.620;2023-09-07T06:53:57;17.80;1.00
6146;DHT22;3104;50.348;7.620;2023-09-07T06:56:23;17.80;99.90
6146;DHT22;3104;50.348;7.620;2023-09-07T06:58:49;17.80;20.80
6146;DHT22;3104;50.348;7.620;2023-09-07T07:01:14;17.90;99.90
6146;DHT22;3104;50.348;7.620;2023-09-07T07:03:41;18.00;1.00
6146;DHT22;3104;50.348;7.620;2023-09-07T07:06:06;18.20;99.90
6146;DHT22;3104;50.348;7.620;2023-09-07T07:08:32;18.30;1.00
6146;DHT22;3104;50.348;7.620;2023-09-07T07:10:58;18.40;1.00
6146;DHT22;3104;50.348;7.620;2023-09-07T07:13:23;18.40;1.00
6146;DHT22;3104;50.348;7.620;2023-09-07T07:15:49;18.50;1.00
6146;DHT22;3104;50.348;7.620;2023-09-07T07:18:14;18.50;99.90
6146;DHT22;3104;50.348;7.620;2023-09-07T07:20:41;18.60;99.90
6146;DHT22;3104;50.348;7.620;2023-09-07T07:23:07;18.60;1.00
6146;DHT22;3104;50.348;7.620;2023-09-07T07:25:33;18.70;1.00
6146;DHT22;3104;50.348;7.620;2023-09-07T07:28:00;18.80;99.90
6146;DHT22;3104;50.348;7.620;2023-09-07T07:30:29;18.90;1.00
6146;DHT22;3104;50.348;7.620;2023-09-07T07:32:55;19.00;1.00
6146;DHT22;3104;50.348;7.620;2023-09-07T07:35:21;19.10;1.00
6146;DHT22;3104;50.348;7.620;2023-09-07T07:37:47;19.20;1.00
6146;DHT22;3104;50.348;7.620;2023-09-07T07:40:13;19.20;1.00
6146;DHT22;3104;50.348;7.620;2023-09-07T07:42:39;19.40;1.00
6146;DHT22;3104;50.348;7.620;2023-09-07T07:45:04;19.50;93.70
6146;DHT22;3104;50.348;7.620;2023-09-07T07:47:30;19.50;1.00
6146;DHT22;3104;50.348;7.620;2023-09-07T07:49:56;19.60;1.00
6146;DHT22;3104;50.348;7.620;2023-09-07T07:52:21;19.60;1.00
6146;DHT22;3104;50.348;7.620;2023-09-07T07:54:47;19.60;1.00
6146;DHT22;3104;50.348;7.620;2023-09-07T07:57:12;19.60;1.00
6146;DHT22;3104;50.348;7.620;2023-09-07T07:59:38;19.70;99.90
6146;DHT22;3104;50.348;7.620;2023-09-07T08:02:04;19.80;1.00
6146;DHT22;3104;50.348;7.620;2023-09-07T08:04:31;19.90;99.90
6146;DHT22;3104;50.348;7.620;2023-09-07T08:06:58;20.00;99.90
6146;DHT22;3104;50.348;7.620;2023-09-07T08:09:29;20.00;99.90
6146;DHT22;3104;50.348;7.620;2023-09-07T08:11:55;20.20;99.90
6146;DHT22;3104;50.348;7.620;2023-09-07T08:14:21;20.20;99.90
6146;DHT22;3104;50.348;7.620;2023-09-07T08:16:47;20.30;1.00
6146;DHT22;3104;50.348;7.620;2023-09-07T08:19:13;20.40;99.90
6146;DHT22;3104;50.348;7.620;2023-09-07T08:21:39;20.50;1.00
6146;DHT22;3104;50.348;7.620;2023-09-07T08:24:07;20.60;99.90
6146;DHT22;3104;50.348;7.620;2023-09-07T08:26:33;20.80;99.90
6146;DHT22;3104;50.348;7.620;2023-09-07T08:28:59;20.90;1.00
6146;DHT22;3104;50.348;7.620;2023-09-07T08:31:24;21.10;1.00
6146;DHT22;3104;50.348;7.620;2023-09-07T08:33:50;21.20;1.00
6146;DHT22;3104;50.348;7.620;2023-09-07T08:36:20;21.30;99.90
6146;DHT22;3104;50.348;7.620;2023-09-07T08:38:48;21.40;1.00
6146;DHT22;3104;50.348;7.620;2023-09-07T08:41:13;22.00;1.00
6146;DHT22;3104;50.348;7.620;2023-09-07T08:43:45;22.00;1.00
6146;DHT22;3104;50.348;7.620;2023-09-07T08:46:18;22.50;1.00
6146;DHT22;3104;50.348;7.620;2023-09-07T08:48:46;22.80;1.00
6146;DHT22;3104;50.348;7.620;2023-09-07T08:51:14;22.40;1.00
6146;DHT22;3104;50.348;7.620;2023-09-07T08:53:40;23.00;1.00
6146;DHT22;3104;50.348;7.620;2023-09-07T08:56:07;22.80;1.00
6146;DHT22;3104;50.348;7.620;2023-09-07T08:58:36;23.80;99.90
6146;DHT22;3104;50.348;7.620;2023-09-07T09:01:02;24.30;99.90
6146;DHT22;3104;50.348;7.620;2023-09-07T09:03:28;24.10;91.30
6146;DHT22;3104;50.348;7.620;2023-09-07T09:05:56;23.80;99.90
6146;DHT22;3104;50.348;7.620;2023-09-07T09:08:22;24.50;99.90
6146;DHT22;3104;50.348;7.620;2023-09-07T09:11:01;24.50;51.60
6146;DHT22;3104;50.348;7.620;2023-09-07T09:13:32;25.00;13.70
6146;DHT22;3104;50.348;7.620;2023-09-07T09:15:59;25.40;1.00
6146;DHT22;3104;50.348;7.620;2023-09-07T09:18:28;26.20;1.00
6146;DHT22;3104;50.348;7.620;2023-09-07T09:20:55;26.20;1.00
6146;DHT22;3104;50.348;7.620;2023-09-07T09:23:21;26.00;1.00
6146;DHT22;3104;50.348;7.620;2023-09-07T09:25:50;26.70;1.00
6146;DHT22;3104;50.348;7.620;2023-09-07T09:28:16;27.20;1.00
6146;DHT22;3104;50.348;7.620;2023-09-07T09:30:42;27.80;1.00
6146;DHT22;3104;50.348;7.620;2023-09-07T09:33:11;27.50;1.00
6146;DHT22;3104;50.348;7.620;2023-09-07T09:35:37;25.80;1.00
6146;DHT22;3104;50.348;7.620;2023-09-07T09:38:06;26.60;1.00
6146;DHT22;3104;50.348;7.620;2023-09-07T09:40:33;26.90;1.00
6146;DHT22;3104;50.348;7.620;2023-09-07T09:43:03;26.20;1.00
6146;DHT22;3104;50.348;7.620;2023-09-07T09:45:32;25.60;1.00
6146;DHT22;3104;50.348;7.620;2023-09-07T09:47:58;26.10;1.00
6146;DHT22;3104;50.348;7.620;2023-09-07T09:50:27;26.60;1.00
6146;DHT22;3104;50.348;7.620;2023-09-07T09:52:53;27.20;1.00
6146;DHT22;3104;50.348;7.620;2023-09-07T09:55:19;27.00;1.00
6146;DHT22;3104;50.348;7.620;2023-09-07T09:57:45;27.00;1.00
6146;DHT22;3104;50.348;7.620;2023-09-07T10:00:12;27.20;1.00
6146;DHT22;3104;50.348;7.620;2023-09-07T10:02:51;26.90;1.00
6146;DHT22;3104;50.348;7.620;2023-09-07T10:05:20;27.20;1.00
6146;DHT22;3104;50.348;7.620;2023-09-07T10:07:49;28.00;1.00
6146;DHT22;3104;50.348;7.620;2023-09-07T10:10:17;28.10;1.00
6146;DHT22;3104;50.348;7.620;2023-09-07T10:12:45;27.80;1.00
6146;DHT22;3104;50.348;7.620;2023-09-07T10:15:27;27.90;1.00
6146;DHT22;3104;50.348;7.620;2023-09-07T10:18:13;28.00;1.00
6146;DHT22;3104;50.348;7.620;2023-09-07T10:20:56;28.90;1.00
6146;DHT22;3104;50.348;7.620;2023-09-07T10:23:41;29.20;1.00
6146;DHT22;3104;50.348;7.620;2023-09-07T10:26:15;29.20;1.00
6146;DHT22;3104;50.348;7.620;2023-09-07T10:28:41;29.10;1.00
6146;DHT22;3104;50.348;7.620;2023-09-07T10:31:14;28.50;1.00
6146;DHT22;3104;50.348;7.620;2023-09-07T10:33:39;28.30;1.00
6146;DHT22;3104;50.348;7.620;2023-09-07T10:36:05;29.20;1.00
6146;DHT22;3104;50.348;7.620;2023-09-07T10:38:32;29.20;1.00
6146;DHT22;3104;50.348;7.620;2023-09-07T10:40:59;29.60;1.00
6146;DHT22;3104;50.348;7.620;2023-09-07T10:43:30;29.80;99.90
6146;DHT22;3104;50.348;7.620;2023-09-07T10:45:57;29.20;1.00
6146;DHT22;3104;50.348;7.620;2023-09-07T10:48:24;28.50;1.00
6146;DHT22;3104;50.348;7.620;2023-09-07T10:50:50;28.70;1.00
6146;DHT22;3104;50.348;7.620;2023-09-07T10:53:25;29.10;1.00
6146;DHT22;3104;50.348;7.620;2023-09-07T10:55:52;29.10;1.00
6146;DHT22;3104;50.348;7.620;2023-09-07T10:58:32;29.00;1.00
6146;DHT22;3104;50.348;7.620;2023-09-07T11:00:59;28.90;1.00
6146;DHT22;3104;50.348;7.620;2023-09-07T11:03:27;29.00;1.00
6146;DHT22;3104;50.348;7.620;2023-09-07T11:06:00;29.70;1.00
6146;DHT22;3104;50.348;7.620;2023-09-07T11:08:29;30.30;99.90
6146;DHT22;3104;50.348;7.620;2023-09-07T11:10:55;29.50;99.90
6146;DHT22;3104;50.348;7.620;2023-09-07T11:13:21;29.70;99.90
6146;DHT22;3104;50.348;7.620;2023-09-07T11:15:48;29.70;99.90
6146;DHT22;3104;50.348;7.620;2023-09-07T11:18:19;30.20;99.90
6146;DHT22;3104;50.348;7.620;2023-09-07T11:20:45;30.40;99.90
6146;DHT22;3104;50.348;7.620;2023-09-07T11:23:11;30.10;99.90
6146;DHT22;3104;50.348;7.620;2023-09-07T11:25:38;30.30;99.90
6146;DHT22;3104;50.348;7.620;2023-09-07T11:28:05;30.60;99.90
6146;DHT22;3104;50.348;7.620;2023-09-07T11:30:32;30.30;99.90
6146;DHT22;3104;50.348;7.620;2023-09-07T11:33:05;29.70;99.90
6146;DHT22;3104;50.348;7.620;2023-09-07T11:35:31;29.90;99.90
6146;DHT22;3104;50.348;7.620;2023-09-07T11:37:56;30.30;99.90
6146;DHT22;3104;50.348;7.620;2023-09-07T11:40:22;29.80;99.90
6146;DHT22;3104;50.348;7.620;2023-09-07T11:42:47;30.10;99.90
6146;DHT22;3104;50.348;7.620;2023-09-07T11:45:13;29.90;99.90
6146;DHT22;3104;50.348;7.620;2023-09-07T11:47:39;30.60;99.90
6146;DHT22;3104;50.348;7.620;2023-09-07T11:50:05;30.60;99.90
6146;DHT22;3104;50.348;7.620;2023-09-07T11:52:34;30.00;99.90
6146;DHT22;3104;50.348;7.620;2023-09-07T11:54:59;29.90;99.90
6146;DHT22;3104;50.348;7.620;2023-09-07T11:57:25;30.40;99.90
6146;DHT22;3104;50.348;7.620;2023-09-07T11:59:51;30.30;99.90
6146;DHT22;3104;50.348;7.620;2023-09-07T12:02:16;30.30;99.90
6146;DHT22;3104;50.348;7.620;2023-09-07T12:04:43;30.00;99.90
6146;DHT22;3104;50.348;7.620;2023-09-07T12:07:09;29.80;99.90
6146;DHT22;3104;50.348;7.620;2023-09-07T12:09:35;30.40;99.90
6146;DHT22;3104;50.348;7.620;2023-09-07T12:12:00;30.50;99.90
6146;DHT22;3104;50.348;7.620;2023-09-07T12:14:26;30.80;99.90
6146;DHT22;3104;50.348;7.620;2023-09-07T12:16:51;30.90;99.90
6146;DHT22;3104;50.348;7.620;2023-09-07T12:19:17;31.30;99.90
6146;DHT22;3104;50.348;7.620;2023-09-07T12:21:43;31.00;99.90
6146;DHT22;3104;50.348;7.620;2023-09-07T12:24:08;30.60;99.90
6146;DHT22;3104;50.348;7.620;2023-09-07T12:26:34;30.10;99.90
6146;DHT22;3104;50.348;7.620;2023-09-07T12:28:59;30.40;99.90
6146;DHT22;3104;50.348;7.620;2023-09-07T12:31:25;30.80;99.90
6146;DHT22;3104;50.348;7.620;2023-09-07T12:33:51;31.30;99.90
6146;DHT22;3104;50.348;7.620;2023-09-07T12:36:17;31.20;99.90
6146;DHT22;3104;50.348;7.620;2023-09-07T12:38:43;30.50;99.90
6146;DHT22;3104;50.348;7.620;2023-09-07T12:41:08;30.80;99.90
6146;DHT22;3104;50.348;7.620;2023-09-07T12:43:35;31.20;99.90
6146;DHT22;3104;50.348;7.620;2023-09-07T12:46:01;31.90;99.90
6146;DHT22;3104;50.348;7.620;2023-09-07T12:48:27;31.60;99.90
6146;DHT22;3104;50.348;7.620;2023-09-07T12:50:54;31.20;99.90
6146;DHT22;3104;50.348;7.620;2023-09-07T12:53:20;31.50;99.90
6146;DHT22;3104;50.348;7.620;2023-09-07T12:55:45;31.40;99.90
6146;DHT22;3104;50.348;7.620;2023-09-07T12:58:11;31.40;99.90
6146;DHT22;3104;50.348;7.620;2023-09-07T13:00:36;31.30;99.90
6146;DHT22;3104;50.348;7.620;2023-09-07T13:03:02;31.50;99.90
6146;DHT22;3104;50.348;7.620;2023-09-07T13:05:27;31.60;99.90
6146;DHT22;3104;50.348;7.620;2023-09-07T13:07:53;31.80;99.90
6146;DHT22;3104;50.348;7.620;2023-09-07T13:10:19;31.20;99.90
6146;DHT22;3104;50.348;7.620;2023-09-07T13:12:45;30.80;99.90
6146;DHT22;3104;50.348;7.620;2023-09-07T13:15:11;30.90;99.90
6146;DHT22;3104;50.348;7.620;2023-09-07T13:17:36;31.00;99.90
6146;DHT22;3104;50.348;7.620;2023-09-07T13:20:02;30.90;99.90
6146;DHT22;3104;50.348;7.620;2023-09-07T13:22:28;31.10;99.90
6146;DHT22;3104;50.348;7.620;2023-09-07T13:24:53;31.10;99.90
6146;DHT22;3104;50.348;7.620;2023-09-07T13:27:19;30.60;99.90
6146;DHT22;3104;50.348;7.620;2023-09-07T13:29:44;31.00;99.90
6146;DHT22;3104;50.348;7.620;2023-09-07T13:32:10;31.20;99.90
6146;DHT22;3104;50.348;7.620;2023-09-07T13:34:35;30.80;99.90
6146;DHT22;3104;50.348;7.620;2023-09-07T13:37:01;30.70;99.90
6146;DHT22;3104;50.348;7.620;2023-09-07T13:39:27;31.30;99.90
6146;DHT22;3104;50.348;7.620;2023-09-07T13:41:53;31.60;99.90
6146;DHT22;3104;50.348;7.620;2023-09-07T13:44:19;31.30;99.90
6146;DHT22;3104;50.348;7.620;2023-09-07T13:46:44;31.00;99.90
6146;DHT22;3104;50.348;7.620;2023-09-07T13:49:11;31.30;99.90
6146;DHT22;3104;50.348;7.620;2023-09-07T13:51:37;31.50;99.90
6146;DHT22;3104;50.348;7.620;2023-09-07T13:54:06;31.30;99.90
6146;DHT22;3104;50.348;7.620;2023-09-07T13:56:32;31.10;99.90
6146;DHT22;3104;50.348;7.620;2023-09-07T13:58:58;30.40;99.90
6146;DHT22;3104;50.348;7.620;2023-09-07T14:01:24;30.60;99.90
6146;DHT22;3104;50.348;7.620;2023-09-07T14:03:50;31.00;99.90
6146;DHT22;3104;50.348;7.620;2023-09-07T14:06:16;30.80;99.90
6146;DHT22;3104;50.348;7.620;2023-09-07T14:08:43;30.50;99.90
6146;DHT22;3104;50.348;7.620;2023-09-07T14:11:09;30.70;99.90
6146;DHT22;3104;50.348;7.620;2023-09-07T14:13:35;30.50;99.90
6146;DHT22;3104;50.348;7.620;2023-09-07T14:16:01;30.20;99.90
6146;DHT22;3104;50.348;7.620;2023-09-07T14:18:26;30.40;99.90
6146;DHT22;3104;50.348;7.620;2023-09-07T14:20:52;30.30;99.90
6146;DHT22;3104;50.348;7.620;2023-09-07T14:23:18;30.40;99.90
6146;DHT22;3104;50.348;7.620;2023-09-07T14:25:46;30.50;99.90
6146;DHT22;3104;50.348;7.620;2023-09-07T14:28:13;30.40;99.90
6146;DHT22;3104;50.348;7.620;2023-09-07T14:30:39;30.70;99.90
6146;DHT22;3104;50.348;7.620;2023-09-07T14:33:05;30.60;99.90
6146;DHT22;3104;50.348;7.620;2023-09-07T14:35:31;30.60;99.90
6146;DHT22;3104;50.348;7.620;2023-09-07T14:37:56;30.30;99.90
6146;DHT22;3104;50.348;7.620;2023-09-07T14:40:22;30.30;99.90
6146;DHT22;3104;50.348;7.620;2023-09-07T14:42:50;30.40;99.90
6146;DHT22;3104;50.348;7.620;2023-09-07T14:45:16;30.10;99.90
6146;DHT22;3104;50.348;7.620;2023-09-07T14:47:42;30.30;99.90
6146;DHT22;3104;50.348;7.620;2023-09-07T14:50:08;30.70;99.90
6146;DHT22;3104;50.348;7.620;2023-09-07T14:52:40;30.90;99.90
6146;DHT22;3104;50.348;7.620;2023-09-07T14:55:13;30.60;99.90
6146;DHT22;3104;50.348;7.620;2023-09-07T14:57:40;30.70;99.90
6146;DHT22;3104;50.348;7.620;2023-09-07T15:00:06;31.00;99.90
6146;DHT22;3104;50.348;7.620;2023-09-07T15:02:32;30.90;99.90
6146;DHT22;3104;50.348;7.620;2023-09-07T15:04:58;30.50;99.90
6146;DHT22;3104;50.348;7.620;2023-09-07T15:07:24;30.80;99.90
6146;DHT22;3104;50.348;7.620;2023-09-07T15:09:50;30.60;99.90
6146;DHT22;3104;50.348;7.620;2023-09-07T15:12:15;30.80;99.90
6146;DHT22;3104;50.348;7.620;2023-09-07T15:14:41;30.50;99.90
6146;DHT22;3104;50.348;7.620;2023-09-07T15:17:08;30.30;99.90
6146;DHT22;3104;50.348;7.620;2023-09-07T15:19:34;30.20;99.90
6146;DHT22;3104;50.348;7.620;2023-09-07T15:22:00;30.20;99.90
6146;DHT22;3104;50.348;7.620;2023-09-07T15:24:26;29.90;99.90
6146;DHT22;3104;50.348;7.620;2023-09-07T15:26:51;30.10;99.90
6146;DHT22;3104;50.348;7.620;2023-09-07T15:29:17;30.50;99.90
6146;DHT22;3104;50.348;7.620;2023-09-07T15:31:43;30.70;99.90
6146;DHT22;3104;50.348;7.620;2023-09-07T15:34:09;30.70;99.90
6146;DHT22;3104;50.348;7.620;2023-09-07T15:36:34;30.60;99.90
6146;DHT22;3104;50.348;7.620;2023-09-07T15:39:01;30.90;99.90
6146;DHT22;3104;50.348;7.620;2023-09-07T15:41:26;31.20;99.90
6146;DHT22;3104;50.348;7.620;2023-09-07T15:43:53;31.40;99.90
6146;DHT22;3104;50.348;7.620;2023-09-07T15:46:19;30.90;99.90
6146;DHT22;3104;50.348;7.620;2023-09-07T15:48:45;30.80;99.90
6146;DHT22;3104;50.348;7.620;2023-09-07T15:51:11;30.60;99.90
6146;DHT22;3104;50.348;7.620;2023-09-07T15:53:37;30.20;99.90
6146;DHT22;3104;50.348;7.620;2023-09-07T15:56:03;30.10;99.90
6146;DHT22;3104;50.348;7.620;2023-09-07T15:58:29;30.60;99.90
6146;DHT22;3104;50.348;7.620;2023-09-07T16:00:55;30.60;99.90
6146;DHT22;3104;50.348;7.620;2023-09-07T16:03:21;30.20;99.90